Relevés horaires Schaffen (Belgique)


Relevés horaires à Schaffen - Lundi 16 Mars 2020
Heure UTC1 Température [°C] Vent [km/h] Hum. [%] Pres.4 [hPa] Visi. [Km] Nébu. [octa] Préc.5 [mm] Cond.
2m. Res. Ros. Dir.2 Vit. Moy. Raf.3
23:00 8.5 8.5 4.2 NO 3.7 -- 7.4 74 1027.2(1.9/3h) 20 -- -- --
22:00 8.7 8.7 5.0 NO 3.7 -- 5.6 78 1026.5(1.7/3h) 20 -- -- --
21:00 9.0 9.0 5.5 NNO 1.9 -- 7.4 79 1025.9(1.9/3h) 19 -- -- --
20:00 9.6 9.6 5.7 NNO 1.9 -- 7.4 77 1025.2(2.1/3h) 20 -- -- --
19:00 10.7 10.7 5.8 ONO 3.7 -- 7.4 72 1024.7(1.9/3h) 20 -- -- --
18:00 11.0 10.7 6.0 NO 5.6 -- 11.1 71 1023.8(1.7/3h) 20 -- -- --
17:00 11.7 11.5 6.7 ONO 5.6 -- 7.4 71 1023.1(1.3/3h) 20 -- -- --
16:00 12.1 12.1 6.8 O 3.7 -- 7.4 70 1022.7(1.5/3h) 16 -- -- --
15:00 12.3 12.2 7.3 N 5.6 -- 11.1 71 1022.1(1.4/3h) 19 -- -- --
14:00 12.6 12.6 7.6 NNO 5.6 -- 11.1 72 1021.7(1.2/3h) 19 -- -- --
13:00 12.8 12.8 8.1 NO 5.6 -- 9.3 73 1021.1(0.8/3h) 19 -- -- --
12:00 13.9 13.9 8.1 NNO 1.9 -- 7.4 68 1020.7(0.8/3h) 18 -- -- --
11:00 12.4 12.4 8.3 NNO 1.9 -- 3.7 76 1020.5(1.5/3h) 12 -- -- --
10:00 10.2 10.2 7.8 NNO 1.9 -- 5.6 85 1020.2(2.2/3h) 13 -- -- --
09:00 9.2 9.2 7.3 N 3.7 -- 7.4 88 1019.8(3.2/3h) 10 -- -- --
08:00 7.6 7.6 5.9 NNO 3.7 -- 7.4 89 1019(3.1/3h) 14 -- -- --
07:00 4.9 4.9 4.7 NNO 1.9 -- 3.7 99 1018.1(3.0/3h) 12 -- -- --
06:00 4.5 4.5 4.0 NNO 1.9 -- 5.6 97 1016.7(2.4/3h) 10 -- -- --
05:00 4.7 4.7 3.9 NNO 1.9 -- 3.7 95 1015.7(1.7/3h) 12 -- -- --
04:00 5.9 5.9 4.2 SO 3.7 -- 5.6 89 1015(1.4/3h) 19 -- -- --
03:00 5.6 5.6 4.2 NNO 1.9 -- 3.7 91 1014.2(0.8/3h) 20 -- -- --
02:00 6.6 6.6 5.2 NNO 1.9 -- 3.7 91 1013.8(0.5/3h) 20 -- -- --
01:00 6.9 6.9 5.5 S 3.7 -- 3.7 91 1013.6(0.7/3h) 19 -- -- --
00:00 8.8 8.8 5.0 NNO 1.9 -- 9.3 77 1013.2(0.8/3h) 20 -- -- --

1 Coordinated Universal Time. Actuellement il est 10:00 locale et 09:00 UTC.

2 Le vent souffle depuis la direction indiquée vers la direction oposée.

3 Les rafales max. sont disponible 40 min après l'heure du relevé.

4 Pour les stations d'altitude (plus de 600m) le géopotentiel du niveau le plus proche de la pression obligatoire est indiqué.

5 Les stations disposant d'un diffuseur peuvent indiquer "trace". Cela signifie que des précipitations ont touchés le sol mais que la quantité est inférieure à 0.1 mm.

Récapitulatif de la journée
Température [°C] Vent [km/h] Ensoleillement4 [h] Precipitations totale5 [mm] Pression [Hpa]
Min1 Max.2 Moy.3 Max. Min Max.
4.2 14.1 0 11.1 0 h 0 min 0 1013.2 1027.2

1 Température minimale relevée entre 18:00 UTC la veille et 18:00 UTC le jour donné.

2 Température maximale relevée entre 06:00 UTC le jour donné et 06:00 UTC le lendemain.

3 Vent moyen de la journée basé sur les relevés horaires.

4 Ensoleillement en heures relevé entre 06:00 UTC la veille et 06:00 UTC le jour donné.

5 Précipitations totales tombées entre 06:00 UTC la jour donné et 06:00 UTC le lendemain.

Graphiques horaires